createdAt,value
2023-03-16T00:00:34.884Z,13.50
2023-03-16T00:01:34.931Z,13.60
2023-03-16T00:02:34.874Z,11.40
2023-03-16T00:03:34.933Z,12.80
2023-03-16T00:04:34.835Z,10.90
2023-03-16T00:05:34.832Z,10.20
2023-03-16T00:06:34.819Z,10.00
2023-03-16T00:07:34.796Z,10.10
2023-03-16T00:08:34.775Z,12.00
2023-03-16T00:09:34.769Z,10.10
2023-03-16T00:10:34.768Z,12.20
2023-03-16T00:11:34.747Z,11.80
2023-03-16T00:12:34.865Z,11.60
2023-03-16T00:13:34.715Z,13.90
2023-03-16T00:14:34.714Z,13.30
2023-03-16T00:15:34.687Z,12.70
2023-03-16T00:16:34.718Z,11.60
2023-03-16T00:17:34.677Z,11.00
2023-03-16T00:18:34.647Z,12.00
2023-03-16T00:19:34.637Z,12.70
2023-03-16T00:20:34.646Z,13.90
2023-03-16T00:21:34.647Z,12.40
2023-03-16T00:22:34.603Z,11.70
2023-03-16T00:23:34.598Z,12.80
2023-03-16T00:24:34.589Z,12.50
2023-03-16T00:25:34.577Z,13.20
2023-03-16T00:26:34.587Z,15.90
2023-03-16T00:27:34.522Z,14.20
2023-03-16T00:28:34.536Z,13.60
2023-03-16T00:29:34.506Z,13.00
2023-03-16T00:30:34.519Z,14.50
2023-03-16T00:31:34.540Z,17.30
2023-03-16T00:32:34.530Z,14.90
2023-03-16T00:33:34.456Z,14.90
2023-03-16T00:34:34.442Z,16.50
2023-03-16T00:35:34.453Z,15.70
2023-03-16T00:36:34.421Z,14.90
2023-03-16T00:37:34.444Z,17.50
2023-03-16T00:38:34.397Z,15.30
2023-03-16T00:39:34.372Z,15.00
2023-03-16T00:40:34.360Z,17.90
2023-03-16T00:41:34.361Z,18.30
2023-03-16T00:42:34.340Z,17.30
2023-03-16T00:43:34.325Z,23.70
2023-03-16T00:44:34.310Z,22.90
2023-03-16T00:45:34.334Z,20.60
2023-03-16T00:46:34.324Z,24.40
2023-03-16T00:47:34.283Z,20.70
2023-03-16T00:48:34.276Z,24.80
2023-03-16T00:49:34.246Z,24.70
2023-03-16T00:50:34.243Z,22.80
2023-03-16T00:51:34.238Z,20.40
2023-03-16T00:52:34.265Z,20.40
2023-03-16T00:53:34.208Z,15.30
2023-03-16T00:54:34.198Z,14.50
2023-03-16T00:55:34.196Z,14.40
2023-03-16T00:56:34.188Z,12.10
2023-03-16T00:57:34.169Z,15.80
2023-03-16T00:58:34.179Z,20.90
2023-03-16T00:59:34.132Z,21.00
2023-03-16T01:00:34.127Z,24.00
2023-03-16T01:01:34.224Z,28.30
2023-03-16T01:02:34.097Z,28.50
2023-03-16T01:03:34.120Z,27.40
2023-03-16T01:04:34.080Z,31.30
2023-03-16T01:05:34.058Z,35.80
2023-03-16T01:06:34.057Z,27.80
2023-03-16T01:07:34.029Z,26.80
2023-03-16T01:08:34.039Z,30.00
2023-03-16T01:09:33.999Z,33.30
2023-03-16T01:10:34.000Z,31.90
2023-03-16T01:11:33.992Z,40.30
2023-03-16T01:12:33.983Z,34.00
2023-03-16T01:13:33.964Z,33.40
2023-03-16T01:14:33.966Z,33.90
2023-03-16T01:15:33.923Z,28.50
2023-03-16T01:16:33.981Z,28.60
2023-03-16T01:17:33.901Z,37.80
2023-03-16T01:18:33.927Z,37.60
2023-03-16T01:19:33.888Z,36.70
2023-03-16T01:20:33.889Z,29.60
2023-03-16T01:21:33.879Z,44.90
2023-03-16T01:22:33.855Z,46.40
2023-03-16T01:23:33.860Z,25.70
2023-03-16T01:24:33.826Z,41.70
2023-03-16T01:25:33.820Z,48.40
2023-03-16T01:26:33.864Z,48.70
2023-03-16T01:27:33.790Z,58.50
2023-03-16T01:28:33.794Z,45.50
2023-03-16T01:29:33.753Z,43.60
2023-03-16T01:30:33.765Z,48.90
2023-03-16T01:31:33.772Z,58.70
2023-03-16T01:32:33.739Z,59.20
2023-03-16T01:33:33.772Z,96.20
2023-03-16T01:34:33.709Z,39.10
2023-03-16T01:35:33.710Z,63.90
2023-03-16T01:36:33.700Z,53.70
2023-03-16T01:37:33.657Z,106.40
2023-03-16T01:38:33.640Z,82.60
2023-03-16T01:39:33.619Z,127.60
2023-03-16T01:40:33.639Z,102.20
2023-03-16T01:41:33.620Z,64.70
2023-03-16T01:42:33.601Z,77.50
2023-03-16T01:43:33.599Z,77.80
2023-03-16T01:44:33.568Z,40.90
2023-03-16T01:45:33.557Z,72.40
2023-03-16T01:46:33.668Z,97.70
2023-03-16T01:47:33.536Z,60.90
2023-03-16T01:48:33.504Z,93.10
2023-03-16T01:49:33.539Z,63.70
2023-03-16T01:50:33.492Z,42.90
2023-03-16T01:51:33.508Z,80.90
2023-03-16T01:52:33.488Z,73.60
2023-03-16T01:53:33.457Z,53.50
2023-03-16T01:54:33.461Z,62.30
2023-03-16T01:55:33.434Z,69.00
2023-03-16T01:56:33.447Z,57.20
2023-03-16T01:57:33.410Z,52.90
2023-03-16T01:58:33.402Z,53.90
2023-03-16T01:59:33.420Z,60.70
2023-03-16T02:00:33.370Z,47.90
2023-03-16T02:01:33.428Z,41.60
2023-03-16T02:02:33.345Z,29.30
2023-03-16T02:03:33.333Z,52.90
2023-03-16T02:04:33.357Z,23.50
2023-03-16T02:05:33.311Z,29.40
2023-03-16T02:06:33.291Z,32.50
2023-03-16T02:07:33.265Z,28.30
2023-03-16T02:08:33.273Z,24.60
2023-03-16T02:09:33.245Z,24.20
2023-03-16T02:10:33.258Z,28.40
2023-03-16T02:11:33.248Z,24.40
2023-03-16T02:12:33.220Z,21.00
2023-03-16T02:13:33.192Z,28.00
2023-03-16T02:14:33.210Z,25.50
2023-03-16T02:15:33.214Z,33.90
2023-03-16T02:16:33.175Z,27.90
2023-03-16T02:17:33.163Z,25.20
2023-03-16T02:18:33.141Z,32.00
2023-03-16T02:19:33.119Z,31.40
2023-03-16T02:20:33.143Z,33.80
2023-03-16T02:21:33.186Z,26.40
2023-03-16T02:22:33.094Z,26.30
2023-03-16T02:23:33.077Z,28.30
2023-03-16T02:24:33.135Z,26.70
2023-03-16T02:25:33.061Z,27.00
2023-03-16T02:26:33.058Z,24.10
2023-03-16T02:27:33.034Z,26.10
2023-03-16T02:28:33.034Z,21.30
2023-03-16T02:29:32.996Z,22.10
2023-03-16T02:30:33.008Z,21.50
2023-03-16T02:31:33.067Z,20.80
2023-03-16T02:32:32.989Z,17.30
2023-03-16T02:33:32.944Z,19.00
2023-03-16T02:34:32.943Z,16.50
2023-03-16T02:35:32.976Z,17.60
2023-03-16T02:36:32.947Z,19.30
2023-03-16T02:37:32.907Z,17.80
2023-03-16T02:38:32.924Z,18.60
2023-03-16T02:39:32.874Z,16.80
2023-03-16T02:40:32.874Z,17.90
2023-03-16T02:41:32.852Z,16.10
2023-03-16T02:42:32.851Z,17.00
2023-03-16T02:43:32.834Z,14.20
2023-03-16T02:44:32.847Z,18.30
2023-03-16T02:45:32.822Z,17.20
2023-03-16T02:46:32.915Z,16.10
2023-03-16T02:47:32.811Z,17.70
2023-03-16T02:48:32.762Z,16.30
2023-03-16T02:49:32.801Z,20.80
2023-03-16T02:50:32.765Z,16.10
2023-03-16T02:51:32.756Z,19.00
2023-03-16T02:52:32.714Z,16.70
2023-03-16T02:53:32.713Z,15.00
2023-03-16T02:54:32.690Z,16.80
2023-03-16T02:55:32.672Z,16.50
2023-03-16T02:56:32.668Z,17.90
2023-03-16T02:57:32.662Z,15.90
2023-03-16T02:58:32.635Z,16.40
2023-03-16T02:59:32.625Z,16.80
2023-03-16T03:00:32.600Z,16.60
2023-03-16T03:01:32.628Z,16.10
2023-03-16T03:02:32.590Z,15.00
2023-03-16T03:03:32.599Z,15.30
2023-03-16T03:04:32.576Z,15.70
2023-03-16T03:05:32.564Z,16.70
2023-03-16T03:06:32.560Z,16.60
2023-03-16T03:07:32.549Z,16.30
2023-03-16T03:08:32.585Z,17.10
2023-03-16T03:09:32.514Z,16.70
2023-03-16T03:10:32.469Z,17.30
2023-03-16T03:11:32.501Z,18.40
2023-03-16T03:12:32.495Z,15.20
2023-03-16T03:13:32.475Z,15.00
2023-03-16T03:14:32.425Z,16.50
2023-03-16T03:15:32.443Z,16.00
2023-03-16T03:16:32.467Z,17.00
2023-03-16T03:17:32.419Z,13.80
2023-03-16T03:18:32.424Z,15.40
2023-03-16T03:19:32.388Z,15.70
2023-03-16T03:20:32.361Z,13.60
2023-03-16T03:21:32.407Z,14.40
2023-03-16T03:22:32.331Z,12.30
2023-03-16T03:23:32.324Z,14.90
2023-03-16T03:24:32.321Z,13.60
2023-03-16T03:25:32.339Z,14.30
2023-03-16T03:26:32.313Z,14.60
2023-03-16T03:27:32.291Z,14.70
2023-03-16T03:28:32.278Z,14.70
2023-03-16T03:29:32.294Z,15.60
2023-03-16T03:30:32.261Z,13.10
2023-03-16T03:31:32.310Z,13.10
2023-03-16T03:32:32.226Z,12.30
2023-03-16T03:33:32.198Z,13.90
2023-03-16T03:34:32.213Z,12.10
2023-03-16T03:35:32.256Z,10.50
2023-03-16T03:36:32.173Z,12.20
2023-03-16T03:37:32.194Z,11.60
2023-03-16T03:38:32.140Z,11.90
2023-03-16T03:39:32.140Z,12.00
2023-03-16T03:40:32.140Z,11.60
2023-03-16T03:41:32.111Z,14.80
2023-03-16T03:42:32.103Z,10.40
2023-03-16T03:43:32.084Z,12.00
2023-03-16T03:44:32.094Z,11.20
2023-03-16T03:45:32.189Z,12.00
2023-03-16T03:46:32.175Z,12.70
2023-03-16T03:47:32.034Z,12.60
2023-03-16T03:48:32.015Z,12.80
2023-03-16T03:49:32.003Z,14.50
2023-03-16T04:03:13.422Z,10.60
2023-03-16T04:04:13.277Z,11.60
2023-03-16T04:05:13.276Z,11.40
2023-03-16T04:06:13.258Z,11.30
2023-03-16T04:07:13.257Z,10.40
2023-03-16T04:08:13.239Z,12.40
2023-03-16T04:09:13.292Z,10.00
2023-03-16T04:10:13.226Z,12.30
2023-03-16T04:11:13.201Z,10.50
2023-03-16T04:12:13.183Z,12.30
2023-03-16T04:13:13.227Z,9.80
2023-03-16T04:14:13.175Z,10.70
2023-03-16T04:15:13.182Z,12.80
2023-03-16T04:16:13.170Z,13.90
2023-03-16T04:17:13.121Z,10.00
2023-03-16T04:18:13.112Z,12.30
2023-03-16T04:19:13.100Z,10.30
2023-03-16T04:20:13.092Z,10.50
2023-03-16T04:21:13.079Z,10.40
2023-03-16T04:22:13.066Z,10.10
2023-03-16T04:23:13.060Z,10.90
2023-03-16T04:24:13.045Z,10.50
2023-03-16T04:25:13.137Z,9.40
2023-03-16T04:26:13.018Z,10.70
2023-03-16T04:27:13.013Z,10.10
2023-03-16T04:28:12.990Z,11.40
2023-03-16T04:29:12.972Z,10.50
2023-03-16T04:30:12.950Z,10.60
2023-03-16T04:31:13.031Z,9.70
2023-03-16T04:32:12.932Z,11.00
2023-03-16T04:33:12.922Z,10.60
2023-03-16T04:34:12.900Z,12.60
2023-03-16T04:35:12.908Z,10.40
2023-03-16T04:36:12.982Z,11.20
2023-03-16T04:37:12.864Z,12.50
2023-03-16T04:38:12.879Z,11.50
2023-03-16T04:39:12.854Z,11.20
2023-03-16T04:40:12.831Z,10.90
2023-03-16T04:41:12.848Z,9.50
2023-03-16T04:42:12.841Z,11.40
2023-03-16T04:43:12.838Z,9.40
2023-03-16T04:44:12.790Z,11.10
2023-03-16T04:45:12.771Z,9.40
2023-03-16T04:46:12.835Z,11.60
2023-03-16T04:47:12.805Z,9.80
2023-03-16T04:48:12.751Z,11.00
2023-03-16T04:49:12.743Z,11.30
2023-03-16T04:50:12.707Z,13.10
2023-03-16T04:51:12.726Z,10.10
2023-03-16T04:52:12.698Z,11.20
2023-03-16T04:53:12.709Z,10.70
2023-03-16T04:54:12.661Z,9.60
2023-03-16T04:55:12.641Z,11.60
2023-03-16T04:56:12.654Z,13.30
2023-03-16T04:57:12.635Z,10.20
2023-03-16T04:58:12.610Z,11.90
2023-03-16T04:59:12.602Z,10.30
2023-03-16T05:00:12.582Z,10.80
2023-03-16T05:01:12.582Z,11.00
2023-03-16T05:02:12.563Z,11.00
2023-03-16T05:03:12.570Z,10.60
2023-03-16T05:04:18.964Z,11.40
2023-03-16T05:05:13.571Z,12.00
2023-03-16T05:06:12.512Z,10.60
2023-03-16T05:07:12.531Z,11.80
2023-03-16T05:08:12.517Z,13.10
2023-03-16T05:09:12.480Z,12.40
2023-03-16T05:10:12.477Z,10.80
2023-03-16T05:11:12.454Z,12.30
2023-03-16T05:12:12.463Z,12.30
2023-03-16T05:13:12.449Z,11.00
2023-03-16T05:14:12.456Z,14.00
2023-03-16T05:15:12.422Z,12.80
2023-03-16T05:16:12.407Z,12.70
2023-03-16T05:17:12.487Z,10.30
2023-03-16T05:18:12.371Z,12.20
2023-03-16T05:19:12.369Z,11.40
2023-03-16T05:20:14.069Z,9.90
2023-03-16T05:21:12.331Z,11.10
2023-03-16T05:22:12.325Z,12.80
2023-03-16T05:23:12.345Z,12.20
2023-03-16T05:24:12.317Z,10.90
2023-03-16T05:25:12.275Z,13.00
2023-03-16T05:26:12.280Z,12.80
2023-03-16T05:27:12.257Z,12.10
2023-03-16T05:28:12.269Z,11.80
2023-03-16T05:29:12.251Z,11.50
2023-03-16T05:30:12.210Z,11.70
2023-03-16T05:31:12.340Z,11.60
2023-03-16T05:32:12.193Z,11.60
2023-03-16T05:33:12.246Z,11.10
2023-03-16T05:34:12.210Z,11.60
2023-03-16T05:35:12.174Z,10.70
2023-03-16T05:36:12.174Z,11.60
2023-03-16T05:37:12.140Z,11.80
2023-03-16T05:38:12.154Z,10.40
2023-03-16T05:39:12.120Z,10.80
2023-03-16T05:40:12.104Z,12.20
2023-03-16T05:41:12.097Z,11.50
2023-03-16T05:42:12.070Z,9.90
2023-03-16T05:43:12.088Z,11.90
2023-03-16T05:44:12.052Z,10.10
2023-03-16T05:45:12.039Z,10.10
2023-03-16T05:46:12.114Z,11.30
2023-03-16T05:47:12.019Z,9.10
2023-03-16T05:48:11.980Z,13.90
2023-03-16T05:49:12.060Z,10.00
2023-03-16T05:50:11.983Z,10.40
2023-03-16T05:51:11.992Z,10.10
2023-03-16T05:52:11.944Z,10.90
2023-03-16T05:53:11.932Z,11.40
2023-03-16T05:54:11.953Z,12.60
2023-03-16T05:55:11.939Z,10.00
2023-03-16T05:56:11.881Z,10.80
2023-03-16T05:57:11.894Z,10.10
2023-03-16T05:58:11.903Z,10.20
2023-03-16T05:59:11.895Z,9.50
2023-03-16T06:00:11.834Z,11.10
2023-03-16T06:01:11.844Z,9.50
2023-03-16T06:02:11.814Z,9.60
2023-03-16T06:03:11.872Z,9.90
2023-03-16T06:04:11.896Z,10.80
2023-03-16T06:05:11.777Z,9.80
2023-03-16T06:06:11.758Z,9.80
2023-03-16T06:07:11.754Z,11.60
2023-03-16T06:08:11.741Z,10.50
2023-03-16T06:09:11.749Z,11.50
2023-03-16T06:10:11.723Z,10.50
2023-03-16T06:11:11.710Z,10.30
2023-03-16T06:12:11.687Z,10.40
2023-03-16T06:13:11.712Z,10.30
2023-03-16T06:14:11.691Z,10.90
2023-03-16T06:15:11.696Z,9.80
2023-03-16T06:16:11.750Z,11.60
2023-03-16T06:17:11.650Z,10.30
2023-03-16T06:18:11.621Z,11.20
2023-03-16T06:19:11.622Z,10.20
2023-03-16T06:20:11.620Z,10.50
2023-03-16T06:21:11.572Z,9.20
2023-03-16T06:22:11.618Z,10.40
2023-03-16T06:23:11.562Z,10.70
2023-03-16T06:24:11.550Z,11.70
2023-03-16T06:25:11.548Z,16.00
2023-03-16T06:26:11.523Z,16.20
2023-03-16T06:27:11.685Z,12.40
2023-03-16T06:28:11.533Z,11.10
2023-03-16T06:29:11.482Z,15.90
2023-03-16T06:30:11.502Z,10.50
2023-03-16T06:31:11.522Z,9.70
2023-03-16T06:32:11.450Z,10.50
2023-03-16T06:33:11.549Z,9.60
2023-03-16T06:34:11.433Z,13.00
2023-03-16T06:35:11.465Z,9.90
2023-03-16T06:36:11.420Z,9.50
2023-03-16T06:37:11.394Z,10.60
2023-03-16T06:38:11.444Z,9.50
2023-03-16T06:39:11.370Z,11.30
2023-03-16T06:40:11.350Z,11.20
2023-03-16T06:41:11.336Z,10.50
2023-03-16T06:42:11.378Z,11.20
2023-03-16T06:43:11.324Z,12.90
2023-03-16T06:44:11.352Z,11.40
2023-03-16T06:45:20.013Z,10.80
2023-03-16T06:46:18.892Z,11.40
2023-03-16T06:47:18.779Z,9.80
2023-03-16T06:48:11.258Z,11.10
2023-03-16T06:49:18.736Z,9.80
2023-03-16T06:50:19.914Z,8.80
2023-03-16T06:51:18.730Z,9.20
2023-03-16T06:52:19.720Z,8.20
2023-03-16T06:53:18.701Z,8.80
2023-03-16T06:54:18.676Z,9.00
2023-03-16T06:55:11.173Z,11.90
2023-03-16T06:56:11.133Z,14.60
2023-03-16T06:57:11.145Z,16.70
2023-03-16T06:58:18.131Z,21.40
2023-03-16T06:59:11.128Z,13.20
2023-03-16T07:00:19.780Z,9.60
2023-03-16T07:01:19.657Z,9.10
2023-03-16T07:02:18.596Z,8.90
2023-03-16T07:03:11.050Z,8.50
2023-03-16T07:04:11.138Z,10.50
2023-03-16T07:05:11.054Z,8.60
2023-03-16T07:06:11.011Z,10.80
2023-03-16T07:07:11.038Z,8.80
2023-03-16T07:08:10.998Z,9.10
2023-03-16T07:09:11.019Z,9.00
2023-03-16T07:10:11.018Z,9.10
2023-03-16T07:11:10.977Z,8.90
2023-03-16T07:12:11.018Z,11.70
2023-03-16T07:13:10.956Z,9.50
2023-03-16T07:14:10.929Z,10.60
2023-03-16T07:15:10.944Z,10.10
2023-03-16T07:16:10.918Z,8.60
2023-03-16T07:17:10.883Z,8.90
2023-03-16T07:18:10.906Z,10.70
2023-03-16T07:19:10.867Z,10.00
2023-03-16T07:20:10.889Z,9.60
2023-03-16T07:21:10.846Z,9.60
2023-03-16T07:22:10.829Z,9.00
2023-03-16T07:23:10.820Z,8.90
2023-03-16T07:24:10.811Z,10.20
2023-03-16T07:25:10.805Z,9.50
2023-03-16T07:26:10.786Z,8.80
2023-03-16T07:27:12.427Z,8.70
2023-03-16T07:28:10.766Z,9.40
2023-03-16T07:29:10.735Z,9.90
2023-03-16T07:30:10.724Z,9.40
2023-03-16T07:31:10.731Z,9.10
2023-03-16T07:32:10.941Z,9.40
2023-03-16T07:33:10.733Z,9.20
2023-03-16T07:34:10.666Z,9.80
2023-03-16T07:35:10.681Z,9.10
2023-03-16T07:36:10.896Z,10.00
2023-03-16T07:37:10.642Z,10.80
2023-03-16T07:38:10.638Z,9.00
2023-03-16T07:39:10.682Z,9.50
2023-03-16T07:40:10.612Z,8.70
2023-03-16T07:41:10.596Z,10.00
2023-03-16T07:42:10.575Z,8.70
2023-03-16T07:43:10.574Z,7.70
2023-03-16T07:44:18.092Z,7.80
2023-03-16T07:45:10.547Z,9.30
2023-03-16T07:46:10.588Z,10.00
2023-03-16T07:47:10.516Z,7.30
2023-03-16T07:48:10.507Z,8.20
2023-03-16T07:49:10.508Z,7.40
2023-03-16T07:50:10.466Z,7.20
2023-03-16T07:51:10.457Z,6.90
2023-03-16T07:52:10.471Z,6.80
2023-03-16T07:53:10.445Z,6.60
2023-03-16T07:54:10.541Z,7.50
2023-03-16T07:55:10.422Z,7.00
2023-03-16T07:56:10.422Z,5.80
2023-03-16T07:57:10.376Z,6.80
2023-03-16T07:58:10.383Z,9.10
2023-03-16T07:59:10.361Z,6.60
2023-03-16T08:00:10.345Z,12.30
2023-03-16T08:01:10.361Z,6.10
2023-03-16T08:02:10.343Z,7.30
2023-03-16T08:03:10.418Z,7.90
2023-03-16T08:04:10.302Z,10.60
2023-03-16T08:05:10.323Z,14.20
2023-03-16T08:06:10.297Z,16.10
2023-03-16T08:07:10.292Z,10.60
2023-03-16T08:08:10.257Z,7.70
2023-03-16T08:09:10.313Z,8.10
2023-03-16T08:10:10.239Z,5.70
2023-03-16T08:11:10.208Z,6.20
2023-03-16T08:12:10.206Z,5.10
2023-03-16T08:13:10.201Z,7.20
2023-03-16T08:14:10.185Z,6.30
2023-03-16T08:15:10.194Z,5.90
2023-03-16T08:16:10.241Z,6.60
2023-03-16T08:17:10.142Z,5.60
2023-03-16T08:18:10.153Z,5.50
2023-03-16T08:19:10.126Z,5.70
2023-03-16T08:20:10.122Z,5.80
2023-03-16T08:21:10.097Z,7.10
2023-03-16T08:22:10.105Z,5.20
2023-03-16T08:23:10.062Z,7.40
2023-03-16T08:24:10.061Z,6.70
2023-03-16T08:25:10.035Z,6.60
2023-03-16T08:26:10.044Z,4.90
2023-03-16T08:27:10.017Z,5.80
2023-03-16T08:28:10.017Z,4.50
2023-03-16T08:29:10.029Z,5.80
2023-03-16T08:30:09.999Z,4.20
2023-03-16T08:31:10.018Z,6.40
2023-03-16T08:32:09.968Z,4.40
2023-03-16T08:33:09.969Z,5.00
2023-03-16T08:34:10.002Z,4.40
2023-03-16T08:35:09.924Z,4.80
2023-03-16T08:36:09.941Z,4.90
2023-03-16T08:37:09.916Z,6.90
2023-03-16T08:38:09.908Z,6.70
2023-03-16T08:39:11.944Z,5.70
2023-03-16T08:40:09.855Z,6.10
2023-03-16T08:41:09.878Z,4.20
2023-03-16T08:42:09.828Z,4.00
2023-03-16T08:43:09.822Z,4.80
2023-03-16T08:44:09.814Z,3.50
2023-03-16T08:45:11.728Z,4.90
2023-03-16T08:46:09.789Z,3.50
2023-03-16T08:47:09.780Z,4.10
2023-03-16T08:48:09.771Z,3.20
2023-03-16T08:49:09.746Z,4.60
2023-03-16T08:50:09.784Z,5.30
2023-03-16T08:51:09.711Z,6.10
2023-03-16T08:52:09.712Z,4.50
2023-03-16T08:53:09.700Z,4.60
2023-03-16T08:54:09.679Z,3.40
2023-03-16T08:55:09.660Z,4.00
2023-03-16T08:56:09.642Z,5.30
2023-03-16T08:57:09.629Z,3.30
2023-03-16T08:58:09.671Z,4.00
2023-03-16T08:59:19.956Z,6.20
2023-03-16T09:00:10.598Z,9.60
2023-03-16T09:01:09.579Z,9.70
2023-03-16T09:02:09.586Z,5.90
2023-03-16T09:03:09.573Z,6.40
2023-03-16T09:04:09.608Z,4.90
2023-03-16T09:05:09.528Z,4.20
2023-03-16T09:06:09.542Z,3.50
2023-03-16T09:07:09.936Z,3.50
2023-03-16T09:08:09.518Z,4.10
2023-03-16T09:09:09.534Z,3.10
2023-03-16T09:10:09.487Z,4.50
2023-03-16T09:11:09.443Z,3.40
2023-03-16T09:12:09.448Z,3.40
2023-03-16T09:13:09.438Z,3.30
2023-03-16T09:14:09.417Z,3.70
2023-03-16T09:15:09.408Z,3.30
2023-03-16T09:16:09.411Z,3.50
2023-03-16T09:17:09.377Z,5.80
2023-03-16T09:18:09.379Z,5.80
2023-03-16T09:19:09.356Z,6.30
2023-03-16T09:20:21.948Z,5.10
2023-03-16T09:21:10.336Z,4.20
2023-03-16T09:22:09.330Z,5.10
2023-03-16T09:23:09.327Z,4.30
2023-03-16T09:24:09.301Z,3.10
2023-03-16T09:25:09.270Z,4.50
2023-03-16T09:26:09.268Z,3.30
2023-03-16T09:27:09.291Z,3.90
2023-03-16T09:28:09.259Z,5.90
2023-03-16T09:29:09.228Z,4.80
2023-03-16T09:30:09.224Z,4.20
2023-03-16T09:31:09.248Z,3.30
2023-03-16T09:32:09.188Z,5.70
2023-03-16T09:33:09.270Z,3.10
2023-03-16T09:34:09.171Z,2.90
2023-03-16T09:35:09.155Z,2.80
2023-03-16T09:36:09.176Z,2.90
2023-03-16T09:37:09.129Z,2.70
2023-03-16T09:38:09.167Z,2.50
2023-03-16T09:39:09.104Z,2.70
2023-03-16T09:40:11.983Z,2.30
2023-03-16T09:41:09.082Z,3.30
2023-03-16T09:42:09.053Z,3.10
2023-03-16T09:43:09.059Z,2.50
2023-03-16T09:44:09.038Z,2.40
2023-03-16T09:45:09.020Z,2.70
2023-03-16T09:46:09.089Z,2.50
2023-03-16T09:47:08.989Z,2.60
2023-03-16T10:03:25.779Z,2.30
2023-03-16T10:04:25.758Z,2.20
2023-03-16T10:05:25.737Z,3.30
2023-03-16T10:06:25.744Z,3.70
2023-03-16T10:07:25.720Z,2.50
2023-03-16T10:08:25.720Z,2.20
2023-03-16T10:09:25.707Z,2.80
2023-03-16T10:10:25.699Z,4.30
2023-03-16T10:11:25.680Z,2.80
2023-03-16T10:12:25.669Z,2.70
2023-03-16T10:13:25.646Z,2.80
2023-03-16T10:14:25.626Z,2.40
2023-03-16T10:15:25.632Z,2.40
2023-03-16T10:16:25.690Z,2.60
2023-03-16T10:17:25.587Z,2.50
2023-03-16T10:18:25.606Z,2.40
2023-03-16T10:19:25.564Z,2.30
2023-03-16T10:20:25.548Z,2.40
2023-03-16T10:21:25.548Z,4.10
2023-03-16T10:22:25.516Z,2.90
2023-03-16T10:23:25.505Z,2.50
2023-03-16T10:24:25.516Z,3.20
2023-03-16T10:25:25.476Z,2.60
2023-03-16T10:26:25.498Z,3.40
2023-03-16T10:27:25.460Z,3.70
2023-03-16T10:28:25.446Z,3.30
2023-03-16T10:29:25.438Z,2.90
2023-03-16T10:30:25.416Z,2.60
2023-03-16T10:31:25.427Z,3.20
2023-03-16T10:32:26.085Z,3.10
2023-03-16T10:33:25.378Z,2.60
2023-03-16T10:34:25.368Z,2.70
2023-03-16T10:35:25.362Z,3.30
2023-03-16T10:36:25.399Z,3.10
2023-03-16T10:37:25.349Z,3.30
2023-03-16T10:38:25.328Z,3.70
2023-03-16T10:39:25.328Z,3.50
2023-03-16T10:40:25.294Z,3.70
2023-03-16T10:41:25.312Z,3.30
2023-03-16T10:42:25.283Z,3.60
2023-03-16T10:43:25.267Z,3.20
2023-03-16T10:44:25.256Z,3.50
2023-03-16T10:45:25.298Z,3.40
2023-03-16T10:46:25.349Z,3.70
2023-03-16T10:47:25.268Z,3.50
2023-03-16T10:48:25.193Z,3.30
2023-03-16T10:49:25.175Z,3.40
2023-03-16T10:50:25.156Z,5.00
2023-03-16T10:51:25.158Z,3.10
2023-03-16T10:52:25.153Z,3.30
2023-03-16T10:53:25.122Z,4.30
2023-03-16T10:54:25.136Z,2.80
2023-03-16T10:55:25.094Z,3.00
2023-03-16T10:56:25.113Z,2.60
2023-03-16T10:57:25.071Z,2.40
2023-03-16T10:58:25.067Z,2.60
2023-03-16T10:59:25.060Z,2.80
2023-03-16T11:00:25.026Z,2.30
2023-03-16T11:01:25.035Z,2.20
2023-03-16T11:02:25.017Z,2.30
2023-03-16T11:03:24.980Z,3.40
2023-03-16T11:04:25.038Z,2.30
2023-03-16T11:05:24.961Z,3.10
2023-03-16T11:06:24.967Z,2.00
2023-03-16T11:07:24.938Z,2.50
2023-03-16T11:08:24.930Z,2.60
2023-03-16T11:09:24.959Z,2.20
2023-03-16T11:10:24.901Z,2.60
2023-03-16T11:11:24.888Z,2.20
2023-03-16T11:12:24.883Z,2.10
2023-03-16T11:13:24.869Z,2.00
2023-03-16T11:14:24.888Z,2.10
2023-03-16T11:15:26.061Z,2.60
2023-03-16T11:16:24.879Z,2.70
2023-03-16T11:17:24.815Z,2.30
2023-03-16T11:18:24.817Z,2.20
2023-03-16T11:19:24.777Z,2.10
2023-03-16T11:20:24.783Z,3.70
2023-03-16T11:21:24.742Z,7.20
2023-03-16T11:22:24.781Z,2.80
2023-03-16T11:23:24.723Z,3.70
2023-03-16T11:24:24.710Z,2.30
2023-03-16T11:25:24.705Z,1.80
2023-03-16T11:26:24.686Z,1.80
2023-03-16T11:27:24.709Z,1.80
2023-03-16T11:28:24.662Z,2.20
2023-03-16T11:29:24.691Z,2.10
2023-03-16T11:30:24.649Z,2.20
2023-03-16T11:31:24.759Z,2.90
2023-03-16T11:32:24.663Z,1.90
2023-03-16T11:33:24.606Z,2.00
2023-03-16T11:34:25.252Z,1.80
2023-03-16T11:35:27.151Z,2.00
2023-03-16T11:36:25.434Z,1.80
2023-03-16T11:37:24.809Z,2.20
2023-03-16T11:38:25.377Z,1.90
2023-03-16T11:39:25.312Z,2.00
2023-03-16T11:40:24.544Z,2.10
2023-03-16T11:41:24.488Z,1.80
2023-03-16T11:42:24.479Z,2.10
2023-03-16T11:43:24.468Z,2.10
2023-03-16T11:44:24.497Z,2.40
2023-03-16T11:45:24.450Z,2.20
2023-03-16T11:46:24.529Z,1.80
2023-03-16T11:47:24.418Z,2.20
2023-03-16T11:48:24.401Z,1.60
2023-03-16T11:49:24.381Z,1.70
2023-03-16T11:50:24.400Z,1.70
2023-03-16T11:51:24.397Z,2.00
2023-03-16T11:52:24.375Z,1.90
2023-03-16T11:53:24.403Z,2.10
2023-03-16T11:54:24.336Z,1.70
2023-03-16T11:55:24.327Z,1.80
2023-03-16T11:56:24.329Z,1.70
2023-03-16T11:57:24.308Z,1.60
2023-03-16T11:58:24.304Z,2.40
2023-03-16T11:59:24.485Z,1.60
2023-03-16T12:00:24.265Z,2.40
2023-03-16T12:01:24.316Z,1.80
2023-03-16T12:02:24.268Z,2.20
2023-03-16T12:03:24.249Z,2.00
2023-03-16T12:04:24.395Z,1.70
2023-03-16T12:05:24.185Z,1.80
2023-03-16T12:06:24.157Z,2.00
2023-03-16T12:07:24.152Z,1.90
2023-03-16T12:08:24.138Z,2.20
2023-03-16T12:09:24.118Z,2.20
2023-03-16T12:10:24.130Z,2.00
2023-03-16T12:11:24.121Z,2.20
2023-03-16T12:12:24.088Z,2.30
2023-03-16T12:13:24.089Z,2.30
2023-03-16T12:14:24.110Z,2.30
2023-03-16T12:15:24.072Z,2.20
2023-03-16T12:16:24.533Z,2.30
2023-03-16T12:17:24.021Z,2.30
2023-03-16T12:18:24.008Z,2.30
2023-03-16T12:19:23.994Z,2.20
2023-03-16T12:20:23.986Z,2.30
2023-03-16T12:21:23.959Z,2.20
2023-03-16T12:22:24.002Z,2.20
2023-03-16T12:23:24.461Z,2.10
2023-03-16T12:24:23.931Z,2.30
2023-03-16T12:25:23.927Z,2.30
2023-03-16T12:26:23.920Z,2.10
2023-03-16T12:27:23.890Z,2.20
2023-03-16T12:28:23.870Z,2.10
2023-03-16T12:29:23.877Z,3.60
2023-03-16T12:30:23.850Z,2.10
2023-03-16T12:31:23.908Z,2.10
2023-03-16T12:32:23.887Z,2.20
2023-03-16T12:33:23.810Z,2.10
2023-03-16T12:34:23.803Z,1.90
2023-03-16T12:35:23.808Z,2.60
2023-03-16T12:36:23.761Z,4.80
2023-03-16T12:37:23.770Z,1.90
2023-03-16T12:38:23.751Z,2.20
2023-03-16T12:39:23.734Z,1.90
2023-03-16T12:40:23.810Z,2.40
2023-03-16T12:41:23.746Z,2.00
2023-03-16T12:42:23.703Z,3.00
2023-03-16T12:43:23.698Z,2.30
2023-03-16T12:44:23.680Z,2.40
2023-03-16T12:45:23.692Z,2.80
2023-03-16T12:46:23.717Z,2.40
2023-03-16T12:47:23.677Z,2.60
2023-03-16T12:48:23.626Z,2.30
2023-03-16T12:49:23.616Z,2.50
2023-03-16T12:50:23.608Z,2.40
2023-03-16T12:51:23.604Z,2.00
2023-03-16T12:52:23.662Z,2.40
2023-03-16T12:53:23.577Z,2.10
2023-03-16T12:54:23.698Z,2.40
2023-03-16T12:55:23.568Z,2.40
2023-03-16T12:56:23.548Z,2.10
2023-03-16T12:57:23.542Z,2.20
2023-03-16T12:58:23.524Z,2.00
2023-03-16T12:59:23.512Z,1.90
2023-03-16T13:00:23.518Z,1.80
2023-03-16T13:01:23.516Z,1.70
2023-03-16T13:02:23.479Z,1.90
2023-03-16T13:03:23.461Z,1.90
2023-03-16T13:04:23.624Z,1.70
2023-03-16T13:05:23.443Z,1.80
2023-03-16T13:06:23.468Z,1.80
2023-03-16T13:07:23.420Z,1.60
2023-03-16T13:08:23.457Z,1.70
2023-03-16T13:09:23.404Z,1.90
2023-03-16T13:10:23.394Z,1.70
2023-03-16T13:11:23.355Z,1.60
2023-03-16T13:12:23.349Z,1.70
2023-03-16T13:13:23.351Z,1.80
2023-03-16T13:14:23.313Z,1.80
2023-03-16T13:15:23.330Z,1.50
2023-03-16T13:16:23.341Z,1.70
2023-03-16T13:17:23.323Z,1.90
2023-03-16T13:18:23.287Z,1.70
2023-03-16T13:19:23.329Z,1.60
2023-03-16T13:20:30.408Z,1.80
2023-03-16T13:21:24.249Z,2.10
2023-03-16T13:22:23.225Z,3.00
2023-03-16T13:23:23.259Z,2.20
2023-03-16T13:24:23.204Z,2.00
2023-03-16T13:25:23.219Z,1.90
2023-03-16T13:26:23.170Z,1.70
2023-03-16T13:27:23.191Z,1.60
2023-03-16T13:28:23.146Z,1.50
2023-03-16T13:29:23.172Z,1.80
2023-03-16T13:30:23.163Z,1.70
2023-03-16T13:31:23.196Z,2.00
2023-03-16T13:32:23.122Z,2.00
2023-03-16T13:33:23.098Z,2.10